Time;durP1;ratioP1;P1;durP2;ratioP2;P2;SDS_P1;SDS_P2;PMS_P1;PMS_P2;Temp;Humidity;BMP_temperature;BMP_pressure;BME280_temperature;BME280_humidity;BME280_pressure;Samples;Min_cycle;Max_cycle;Signal;HPM_P1;HPM_P2
2022/10/18 04:22:51;;;;;;;8.88;3.53;;;;;;;13.33;100.00;101103.56;5162852;27;20353;-63
2022/10/18 04:25:17;;;;;;;5.20;2.67;;;;;;;13.30;100.00;101099.41;5129807;27;20124;-63
2022/10/18 04:27:43;;;;;;;6.25;3.78;;;;;;;13.35;100.00;101100.72;5129803;27;20027;-63
2022/10/18 04:30:09;;;;;;;4.13;2.70;;;;;;;13.37;100.00;101099.56;5129605;27;20110;-63
2022/10/18 04:32:34;;;;;;;5.22;3.03;;;;;;;13.34;100.00;101102.56;5129529;27;20059;-64
2022/10/18 04:35:01;;;;;;;8.35;2.80;;;;;;;13.40;100.00;101093.03;5130125;27;20035;-63
2022/10/18 04:37:26;;;;;;;8.68;3.40;;;;;;;13.47;100.00;101096.69;5129579;27;20043;-61
2022/10/18 04:39:52;;;;;;;4.70;3.90;;;;;;;13.50;100.00;101094.50;5129543;27;20111;-65
2022/10/18 04:42:17;;;;;;;5.47;2.75;;;;;;;13.51;100.00;101096.19;5129244;27;20396;-61
2022/10/18 04:44:42;;;;;;;3.42;2.28;;;;;;;13.52;100.00;101097.84;5129530;27;20275;-60
2022/10/18 04:47:08;;;;;;;4.22;3.03;;;;;;;13.58;100.00;101094.47;5129427;27;20067;-62
2022/10/18 04:49:33;;;;;;;3.55;2.30;;;;;;;13.59;100.00;101103.34;5129485;27;20525;-61
2022/10/18 04:51:59;;;;;;;7.13;4.05;;;;;;;13.64;100.00;101106.34;5128961;27;20039;-63
2022/10/18 04:54:24;;;;;;;4.60;3.25;;;;;;;13.61;100.00;101087.94;5129116;27;20039;-63
2022/10/18 04:56:49;;;;;;;5.43;2.78;;;;;;;13.71;100.00;101091.25;5129220;27;20131;-63
2022/10/18 04:59:15;;;;;;;5.07;3.42;;;;;;;13.75;100.00;101091.72;5129331;27;20040;-62
2022/10/18 05:01:40;;;;;;;4.53;2.55;;;;;;;13.75;100.00;101108.63;5128907;27;20043;-64
2022/10/18 05:04:05;;;;;;;6.05;2.50;;;;;;;13.79;100.00;101103.78;5129251;27;20083;-63
2022/10/18 05:06:31;;;;;;;4.93;2.35;;;;;;;13.77;100.00;101106.63;5127767;28;20399;-63
2022/10/18 05:08:56;;;;;;;4.90;2.58;;;;;;;13.75;100.00;101103.25;5129084;27;20035;-63
2022/10/18 05:11:22;;;;;;;5.50;2.88;;;;;;;13.74;100.00;101101.59;5128650;27;20048;-63
2022/10/18 05:13:47;;;;;;;4.75;2.72;;;;;;;13.77;100.00;101106.63;5128925;27;20042;-64
2022/10/18 05:16:12;;;;;;;6.60;2.63;;;;;;;13.78;100.00;101105.63;5128833;27;20083;-62
2022/10/18 05:18:38;;;;;;;5.60;2.60;;;;;;;13.76;100.00;101101.47;5128931;28;20041;-63
2022/10/18 05:21:03;;;;;;;8.40;3.03;;;;;;;13.75;100.00;101095.22;5128243;28;20027;-62
2022/10/18 05:23:29;;;;;;;3.45;2.67;;;;;;;13.70;100.00;101094.94;5128695;27;20038;-63
2022/10/18 05:25:59;;;;;;;3.30;2.20;;;;;;;13.69;100.00;101109.34;5128643;27;20031;-63
2022/10/18 05:28:25;;;;;;;6.03;2.80;;;;;;;13.67;100.00;101113.19;5128631;27;20028;-64
2022/10/18 05:30:50;;;;;;;4.95;2.80;;;;;;;13.67;100.00;101108.66;5128180;27;20075;-64
2022/10/18 05:33:16;;;;;;;5.00;2.22;;;;;;;13.69;100.00;101108.47;5120308;27;20066;-61
2022/10/18 05:35:41;;;;;;;3.15;2.17;;;;;;;13.71;100.00;101110.00;5114775;28;20498;-63
2022/10/18 05:38:07;;;;;;;6.93;2.78;;;;;;;13.74;100.00;101109.63;5114737;28;20036;-63
2022/10/18 05:40:33;;;;;;;3.28;2.35;;;;;;;13.72;100.00;101100.94;5114397;27;20096;-62
2022/10/18 05:42:58;;;;;;;3.05;2.20;;;;;;;13.72;100.00;101100.94;5114638;28;20043;-62
2022/10/18 05:45:23;;;;;;;3.95;2.35;;;;;;;13.76;100.00;101099.59;5114513;28;20119;-64
2022/10/18 05:47:49;;;;;;;3.92;2.65;;;;;;;13.78;100.00;101099.44;5114653;28;20063;-62
2022/10/18 05:50:14;;;;;;;3.95;2.22;;;;;;;13.77;100.00;101103.13;5114265;28;20074;-64
2022/10/18 05:52:39;;;;;;;4.45;2.67;;;;;;;13.84;100.00;101101.41;5114420;28;20051;-68
2022/10/18 05:55:05;;;;;;;5.95;2.30;;;;;;;13.87;100.00;101094.88;5114526;27;20039;-68
2022/10/18 05:57:31;;;;;;;2.58;2.17;;;;;;;13.85;100.00;101103.06;5114309;28;20063;-68
2022/10/18 05:59:57;;;;;;;3.55;2.10;;;;;;;13.83;100.00;101097.06;5114322;28;20088;-68
2022/10/18 06:02:22;;;;;;;3.65;2.22;;;;;;;13.87;100.00;101095.69;5114178;28;20468;-68
2022/10/18 06:04:47;;;;;;;3.38;2.50;;;;;;;13.87;100.00;101100.22;5114314;28;20047;-68
2022/10/18 06:07:13;;;;;;;2.35;2.03;;;;;;;13.89;100.00;101096.38;5114177;28;20101;-68
2022/10/18 06:09:38;;;;;;;6.85;2.75;;;;;;;13.88;100.00;101096.53;5114183;28;20038;-68
2022/10/18 06:12:04;;;;;;;5.55;2.53;;;;;;;13.89;100.00;101106.22;5113734;28;20450;-68
2022/10/18 06:14:30;;;;;;;4.55;2.13;;;;;;;13.89;100.00;101100.88;5114376;27;20131;-68
2022/10/18 06:16:55;;;;;;;3.15;2.28;;;;;;;13.93;100.00;101111.06;5114089;28;20028;-68
2022/10/18 06:19:22;;;;;;;9.02;2.28;;;;;;;13.95;100.00;101102.84;5114160;28;20044;-68
2022/10/18 06:21:47;;;;;;;3.08;2.40;;;;;;;14.01;100.00;101107.50;5112332;28;20091;-68
2022/10/18 06:24:13;;;;;;;7.90;3.08;;;;;;;14.05;100.00;101115.03;5113928;28;20485;-67
2022/10/18 06:26:38;;;;;;;4.18;2.97;;;;;;;14.07;100.00;101107.66;5113915;28;20035;-67
2022/10/18 06:29:04;;;;;;;5.63;2.83;;;;;;;14.08;100.00;101122.75;5113873;28;20031;-67
2022/10/18 06:31:29;;;;;;;7.10;2.20;;;;;;;14.07;100.00;101118.38;5112333;28;20031;-67
2022/10/18 06:33:57;;;;;;;2.95;2.28;;;;;;;14.05;100.00;101131.09;5113839;28;20667;-67
2022/10/18 06:36:22;;;;;;;7.65;2.45;;;;;;;14.01;100.00;101118.22;5113682;28;20043;-67
2022/10/18 06:38:49;;;;;;;9.13;2.58;;;;;;;14.04;100.00;101123.25;5113638;28;20032;-66
2022/10/18 06:41:14;;;;;;;3.80;2.28;;;;;;;14.08;100.00;101122.75;5113262;28;20100;-68
2022/10/18 06:43:40;;;;;;;3.88;2.50;;;;;;;14.09;100.00;101126.25;5113418;28;20047;-68
2022/10/18 06:46:06;;;;;;;4.13;2.90;;;;;;;14.18;100.00;101153.81;5112673;28;20071;-67
2022/10/18 06:48:37;;;;;;;4.57;2.33;;;;;;;14.21;100.00;101150.78;5113460;28;20043;-64
2022/10/18 06:51:05;;;;;;;5.53;3.20;;;;;;;14.27;100.00;101152.75;5112970;28;20096;-64
2022/10/18 06:53:33;;;;;;;4.47;2.72;;;;;;;14.29;100.00;101156.13;5113450;28;20059;-63
2022/10/18 06:56:05;;;;;;;5.55;3.20;;;;;;;14.37;100.00;101158.75;5113206;28;20066;-64
2022/10/18 06:58:31;;;;;;;4.03;2.45;;;;;;;14.39;100.00;101162.09;5113198;28;20032;-65
2022/10/18 07:00:58;;;;;;;3.85;2.65;;;;;;;14.46;100.00;101170.25;5112940;28;20046;-65
2022/10/18 07:03:23;;;;;;;5.43;3.00;;;;;;;14.51;100.00;101170.59;5113126;28;20482;-63
2022/10/18 07:05:49;;;;;;;5.60;2.80;;;;;;;14.57;100.00;101172.56;5112994;28;20122;-64
2022/10/18 07:08:16;;;;;;;3.83;2.70;;;;;;;14.61;100.00;101165.88;5113000;28;20032;-64
2022/10/18 07:10:41;;;;;;;4.90;2.88;;;;;;;14.70;100.00;101175.50;5112795;28;20043;-64
2022/10/18 07:13:07;;;;;;;5.30;2.53;;;;;;;14.80;100.00;101183.31;5113263;28;20032;-65
2022/10/18 07:15:33;;;;;;;5.10;2.63;;;;;;;14.78;100.00;101170.09;5112850;28;20031;-63
2022/10/18 07:17:59;;;;;;;4.03;2.80;;;;;;;14.88;100.00;101180.59;5111698;28;20039;-64
2022/10/18 07:20:24;;;;;;;6.60;2.70;;;;;;;14.92;100.00;101185.41;5112422;28;20092;-62
2022/10/18 07:22:49;;;;;;;3.97;2.38;;;;;;;14.97;100.00;101186.72;5112995;28;20030;-65
2022/10/18 07:25:15;;;;;;;7.18;2.80;;;;;;;15.01;100.00;101191.56;5112548;28;20476;-63
2022/10/18 07:27:42;;;;;;;7.25;2.78;;;;;;;15.08;100.00;101195.19;5112927;28;20147;-64
2022/10/18 07:30:09;;;;;;;4.50;3.25;;;;;;;15.15;100.00;101195.31;5112566;28;20168;-66
2022/10/18 07:32:35;;;;;;;4.57;2.67;;;;;;;15.22;100.00;101196.25;5112520;28;20030;-63
2022/10/18 07:35:01;;;;;;;8.27;3.65;;;;;;;15.27;100.00;101206.47;5112524;28;20051;-63
2022/10/18 07:37:27;;;;;;;3.47;2.70;;;;;;;15.32;100.00;101207.59;5112464;28;20176;-64
2022/10/18 07:39:53;;;;;;;4.25;2.80;;;;;;;15.38;100.00;101208.69;5112490;28;20126;-65
2022/10/18 07:42:18;;;;;;;4.88;2.80;;;;;;;15.43;100.00;101217.88;5112358;28;20560;-66
2022/10/18 07:44:43;;;;;;;5.43;2.90;;;;;;;15.51;100.00;101218.81;5112409;27;20054;-65
2022/10/18 07:47:09;;;;;;;6.35;3.30;;;;;;;15.56;100.00;101224.47;5112368;28;20040;-69
2022/10/18 07:49:34;;;;;;;5.72;2.90;;;;;;;15.61;100.00;101227.47;5112470;28;20039;-67
2022/10/18 07:52:00;;;;;;;5.30;2.90;;;;;;;15.64;100.00;101227.09;5110727;28;20039;-66
2022/10/18 07:54:25;;;;;;;3.65;2.50;;;;;;;15.69;100.00;101230.09;5112375;28;20096;-67
2022/10/18 07:56:50;;;;;;;7.68;3.00;;;;;;;15.68;100.00;101234.63;5111902;28;20051;-66
2022/10/18 07:59:16;;;;;;;3.83;2.90;;;;;;;15.64;100.00;101230.63;5077216;28;20055;-67
2022/10/18 08:01:41;;;;;;;7.75;2.85;;;;;;;15.70;100.00;101246.00;5111472;28;20502;-67
2022/10/18 08:04:07;;;;;;;5.07;3.33;;;;;;;15.72;100.00;101248.53;5112145;28;20130;-66
2022/10/18 08:06:32;;;;;;;4.85;3.08;;;;;;;15.69;100.00;101235.47;5112175;28;20039;-67
2022/10/18 08:08:58;;;;;;;5.93;3.47;;;;;;;15.75;100.00;101242.78;5111665;28;20479;-67
2022/10/18 08:11:24;;;;;;;4.30;3.20;;;;;;;15.78;100.00;101238.88;5110978;28;20130;-67
2022/10/18 08:13:51;;;;;;;6.13;3.45;;;;;;;15.86;100.00;101244.19;5111809;28;20040;-66
2022/10/18 08:16:26;;;;;;;4.85;3.13;;;;;;;15.94;100.00;101236.88;5109356;28;20088;-66
2022/10/18 08:18:52;;;;;;;4.20;2.60;;;;;;;15.98;100.00;101226.63;5110727;28;20038;-66
2022/10/18 08:21:19;;;;;;;3.90;3.05;;;;;;;16.01;100.00;101224.38;5111597;28;20024;-67
2022/10/18 08:23:45;;;;;;;5.85;2.90;;;;;;;16.04;100.00;101223.19;5111947;28;20118;-65
2022/10/18 08:26:16;;;;;;;5.85;2.38;;;;;;;16.11;100.00;101223.28;5111745;28;20090;-68
2022/10/18 08:28:42;;;;;;;4.00;3.22;;;;;;;16.23;100.00;101219.06;5112004;28;20633;-67
2022/10/18 08:31:13;;;;;;;5.03;3.25;;;;;;;16.44;100.00;101229.91;5111511;28;20067;-68
2022/10/18 08:33:39;;;;;;;4.85;2.97;;;;;;;16.69;100.00;101229.56;5110481;28;20035;-66
2022/10/18 08:36:07;;;;;;;6.68;3.47;;;;;;;17.00;100.00;101232.00;5110542;28;20031;-67
2022/10/18 08:38:35;;;;;;;3.45;2.42;;;;;;;17.15;100.00;101227.44;5111937;28;20035;-66
2022/10/18 08:41:38;;;;;;;6.22;2.85;;;;;;;17.27;100.00;101227.72;5111584;28;20035;-67
2022/10/18 08:44:26;;;;;;;2.97;2.47;;;;;;;17.44;100.00;101230.97;5111880;28;20123;-66
2022/10/18 08:46:57;;;;;;;5.22;3.08;;;;;;;17.59;100.00;101234.41;5111719;28;20040;-68
2022/10/18 08:49:28;;;;;;;3.25;2.88;;;;;;;17.82;100.00;101231.50;5111773;28;20511;-68
2022/10/18 08:51:55;;;;;;;3.85;2.65;;;;;;;17.91;100.00;101235.72;5110067;28;20402;-67
2022/10/18 08:54:43;;;;;;;6.70;2.60;;;;;;;18.18;100.00;101240.22;5111773;28;20032;-67
2022/10/18 08:57:17;;;;;;;3.05;2.00;;;;;;;18.35;100.00;101238.03;5111701;28;20074;-68
2022/10/18 08:59:43;;;;;;;3.28;2.55;;;;;;;18.60;100.00;101238.34;5110519;28;20035;-68
2022/10/18 09:02:46;;;;;;;3.28;2.22;;;;;;;18.66;99.52;101242.13;5111201;28;20427;-67
2022/10/18 09:05:34;;;;;;;2.05;1.48;;;;;;;18.83;100.00;101234.50;5111454;28;20510;-67
2022/10/18 09:08:10;;;;;;;4.80;1.98;;;;;;;18.84;100.00;101238.88;5112528;28;20043;-67
2022/10/18 09:10:44;;;;;;;3.00;2.15;;;;;;;18.77;99.00;101236.16;5115147;28;20054;-66
2022/10/18 09:13:31;;;;;;;3.70;2.17;;;;;;;18.80;98.53;101245.72;5115560;27;20050;-66
2022/10/18 09:16:01;;;;;;;3.85;2.10;;;;;;;18.65;98.87;101248.56;5115219;28;20106;-68
2022/10/18 09:19:02;;;;;;;2.65;2.22;;;;;;;18.51;99.42;101250.34;5115191;28;20110;-67
2022/10/18 09:21:45;;;;;;;3.13;2.47;;;;;;;18.41;99.93;101248.03;5114805;28;20038;-68
2022/10/18 09:24:12;;;;;;;3.75;2.40;;;;;;;18.31;100.00;101249.41;5115222;28;20035;-68
2022/10/18 09:26:44;;;;;;;4.15;2.85;;;;;;;18.29;100.00;101249.63;5115045;28;20039;-66
2022/10/18 09:29:47;;;;;;;4.25;2.50;;;;;;;18.28;100.00;101247.13;5115081;28;20028;-68
2022/10/18 09:32:18;;;;;;;3.42;2.50;;;;;;;18.26;100.00;101254.59;5114518;28;20133;-67
2022/10/18 09:34:43;;;;;;;4.20;2.03;;;;;;;18.27;100.00;101245.47;5115107;28;20108;-66
2022/10/18 09:37:16;;;;;;;4.55;2.20;;;;;;;18.32;100.00;101253.78;5114852;28;20492;-66
2022/10/18 09:39:42;;;;;;;4.03;2.42;;;;;;;18.36;100.00;101258.56;5114965;28;20043;-66
2022/10/18 09:42:16;;;;;;;5.32;2.97;;;;;;;18.38;100.00;101253.81;5114499;28;20073;-66
2022/10/18 09:45:03;;;;;;;2.78;2.10;;;;;;;18.41;100.00;101248.03;5114718;28;20042;-66
2022/10/18 09:47:37;;;;;;;5.25;2.60;;;;;;;18.42;100.00;101243.47;5114791;27;20438;-66
2022/10/18 09:50:21;;;;;;;3.35;2.55;;;;;;;18.51;100.00;101253.03;5114517;28;20058;-66
2022/10/18 09:53:11;;;;;;;3.08;2.47;;;;;;;18.54;100.00;101247.25;5114508;28;20098;-66
2022/10/18 09:56:01;;;;;;;5.97;2.40;;;;;;;18.64;100.00;101253.09;5114526;28;20027;-66
2022/10/18 09:58:39;;;;;;;5.43;2.47;;;;;;;18.79;99.60;101255.69;5114561;28;20135;-66
2022/10/18 10:01:05;;;;;;;2.33;2.13;;;;;;;18.95;97.32;101254.47;5114107;28;20119;-67
2022/10/18 10:03:31;;;;;;;3.42;2.30;;;;;;;19.03;96.84;101258.84;5114768;28;20038;-65
2022/10/18 10:06:22;;;;;;;3.58;2.20;;;;;;;19.09;96.99;101260.72;5114586;28;20051;-66
2022/10/18 10:08:58;;;;;;;9.05;2.38;;;;;;;19.34;95.65;101266.38;5114409;28;20045;-67
2022/10/18 10:11:36;;;;;;;3.22;2.00;;;;;;;19.65;91.93;101266.66;5112490;28;20170;-66
2022/10/18 10:14:11;;;;;;;2.92;1.85;;;;;;;19.79;90.52;101267.47;5114216;28;20119;-67
2022/10/18 10:16:47;;;;;;;3.30;2.20;;;;;;;20.15;89.93;101261.59;5114001;28;20135;-67
2022/10/18 10:19:37;;;;;;;2.73;1.97;;;;;;;20.88;87.59;101265.94;5114088;28;20056;-66
2022/10/18 10:22:08;;;;;;;2.65;2.03;;;;;;;21.80;84.05;101261.75;5113457;28;20035;-67
2022/10/18 10:24:45;;;;;;;2.58;1.60;;;;;;;22.69;77.14;101263.06;5114053;28;20044;-68
2022/10/18 10:27:20;;;;;;;2.35;1.70;;;;;;;23.47;73.31;101263.03;5113923;28;20062;-67
2022/10/18 10:29:52;;;;;;;3.17;2.13;;;;;;;24.25;70.26;101250.13;5113772;28;20549;-68
2022/10/18 10:32:19;;;;;;;3.15;1.73;;;;;;;25.21;66.99;101250.41;5113459;28;20080;-67
2022/10/18 10:34:45;;;;;;;;;;;;;;;25.84;62.80;101247.38;5114693;28;20067;-66
2022/10/18 10:37:22;;;;;;;2.60;1.63;;;;;;;26.38;62.63;101244.03;5113855;28;19927;-68
2022/10/18 10:40:19;;;;;;;2.20;1.50;;;;;;;27.01;58.35;101248.03;5113773;28;20122;-68
2022/10/18 10:42:56;;;;;;;2.33;1.80;;;;;;;27.15;58.64;101253.94;5109046;28;20055;-67
2022/10/18 10:45:23;;;;;;;2.45;1.50;;;;;;;26.76;57.74;101252.16;5113570;28;20027;-67
2022/10/18 10:47:51;;;;;;;3.20;1.65;;;;;;;26.48;58.91;101261.41;5113569;28;20035;-67
2022/10/18 10:50:26;;;;;;;1.60;1.33;;;;;;;26.77;58.13;101251.06;5111888;28;20084;-66
2022/10/18 10:52:53;;;;;;;4.20;1.58;;;;;;;26.29;60.81;101256.47;5113351;28;20038;-67
2022/10/18 10:55:23;;;;;;;2.17;1.50;;;;;;;25.85;62.27;101265.41;5111212;28;20039;-66
2022/10/18 10:57:51;;;;;;;2.53;1.60;;;;;;;25.38;64.32;101254.81;5113380;28;20027;-66
2022/10/18 11:00:37;;;;;;;2.97;1.70;;;;;;;25.63;62.80;101261.78;5113095;28;20027;-66
2022/10/18 11:03:13;;;;;;;2.85;1.92;;;;;;;25.64;63.68;101257.97;5113395;28;20159;-66
2022/10/18 11:05:46;;;;;;;6.65;1.88;;;;;;;25.69;63.65;101263.47;5112793;28;20035;-66
2022/10/18 11:08:21;;;;;;;2.88;1.55;;;;;;;26.19;62.78;101260.69;5113007;28;20381;-66
2022/10/18 11:10:59;;;;;;;2.88;1.92;;;;;;;26.50;61.18;101252.94;5112824;28;20051;-66
2022/10/18 11:13:38;;;;;;;2.08;1.80;;;;;;;26.24;61.78;101255.31;5112968;28;20221;-66
2022/10/18 11:16:11;;;;;;;2.13;1.52;;;;;;;26.12;59.21;101259.25;5112771;28;20034;-67
2022/10/18 11:18:36;;;;;;;2.58;1.70;;;;;;;25.78;62.15;101263.94;5113267;28;20400;-67
2022/10/18 11:21:35;;;;;;;3.72;2.15;;;;;;;25.02;67.08;101260.69;5112416;28;20036;-64
2022/10/18 11:24:02;;;;;;;3.67;2.08;;;;;;;24.61;66.83;101255.28;5100471;28;20058;-65
2022/10/18 11:26:46;;;;;;;2.72;2.10;;;;;;;24.05;70.33;101250.50;5108555;27;20044;-66
2022/10/18 11:29:14;;;;;;;2.85;1.67;;;;;;;23.90;71.73;101248.28;5111661;28;20035;-66
2022/10/18 11:31:42;;;;;;;2.25;1.55;;;;;;;23.48;73.33;101252.97;5110915;28;20035;-66
2022/10/18 11:34:35;;;;;;;3.08;1.90;;;;;;;23.28;72.61;101248.69;5112039;28;20473;-66
2022/10/18 11:37:30;;;;;;;2.13;1.88;;;;;;;23.31;73.43;101246.56;5111921;28;20456;-66
2022/10/18 11:40:16;;;;;;;2.60;1.77;;;;;;;23.29;75.65;101244.06;5111833;28;20514;-67
2022/10/18 11:42:56;;;;;;;3.30;1.90;;;;;;;22.73;78.25;101242.56;5110737;28;20118;-67
2022/10/18 11:45:29;;;;;;;6.35;2.17;;;;;;;22.79;77.39;101241.63;5111714;28;20043;-64
2022/10/18 11:48:09;;;;;;;2.40;2.00;;;;;;;22.61;78.23;101228.09;5111140;28;20031;-66
2022/10/18 11:50:43;;;;;;;3.17;1.85;;;;;;;22.81;77.36;101233.25;5111276;28;20035;-67
2022/10/18 11:53:30;;;;;;;2.03;1.60;;;;;;;22.84;79.28;101238.25;5111805;28;20032;-66
2022/10/18 11:55:56;;;;;;;;;;;;;;;22.93;77.61;101229.53;5109833;28;20103;-67
2022/10/18 11:58:39;;;;;;;2.85;1.95;;;;;;;22.74;77.88;101231.44;5091485;28;20356;-66
2022/10/18 12:01:24;;;;;;;2.22;1.70;;;;;;;22.47;78.32;101222.00;5089706;28;20031;-66
2022/10/18 12:04:08;;;;;;;3.53;1.80;;;;;;;22.39;78.83;101219.59;5091385;28;20085;-66
2022/10/18 12:06:37;;;;;;;2.22;1.90;;;;;;;22.62;78.59;101222.41;5091191;28;20040;-66
2022/10/18 12:09:13;;;;;;;2.88;1.88;;;;;;;22.58;79.44;101223.13;5091242;28;20032;-66
2022/10/18 12:11:45;;;;;;;2.28;1.83;;;;;;;22.53;78.91;101226.53;5090520;28;20040;-65
2022/10/18 12:14:34;;;;;;;2.90;1.92;;;;;;;22.45;79.42;101221.41;5091609;28;20031;-67
2022/10/18 12:17:05;;;;;;;4.20;2.10;;;;;;;22.44;80.15;101217.03;5108136;28;20099;-65
2022/10/18 12:19:34;;;;;;;4.13;2.10;;;;;;;23.05;78.27;101215.19;5111630;28;20108;-67
2022/10/18 12:22:27;;;;;;;2.97;2.15;;;;;;;23.62;74.56;101215.53;5110854;28;20168;-66
2022/10/18 12:24:52;;;;;;;2.83;1.77;;;;;;;24.03;72.73;101209.13;5111108;28;20074;-66
2022/10/18 12:27:35;;;;;;;3.67;1.70;;;;;;;24.88;69.37;101216.56;5098079;28;20055;-65
2022/10/18 12:30:18;;;;;;;2.10;1.58;;;;;;;25.79;65.67;101211.84;5091157;28;20085;-66
2022/10/18 12:32:46;;;;;;;2.17;1.58;;;;;;;26.02;64.03;101202.63;5091430;28;20040;-65
2022/10/18 12:35:16;;;;;;;2.85;1.58;;;;;;;25.52;66.03;101211.69;5090897;28;20043;-66
2022/10/18 12:37:47;;;;;;;2.45;1.58;;;;;;;24.79;66.26;101212.59;5090074;28;20123;-66
2022/10/18 12:40:22;;;;;;;1.58;1.40;;;;;;;24.48;67.71;101205.72;5090698;28;20409;-67
2022/10/18 12:42:50;;;;;;;2.17;1.65;;;;;;;23.98;70.56;101204.38;5092085;28;20465;-67
2022/10/18 12:45:32;;;;;;;1.63;1.40;;;;;;;23.74;72.23;101202.78;5095475;28;20492;-67
2022/10/18 12:48:04;;;;;;;2.50;1.55;;;;;;;23.49;72.63;101201.06;5095264;28;20047;-67
2022/10/18 12:50:39;;;;;;;3.53;1.70;;;;;;;23.29;74.34;101211.47;5094772;28;20054;-66
2022/10/18 12:53:17;;;;;;;2.63;1.98;;;;;;;23.02;78.14;101208.34;5095008;28;20035;-66
2022/10/18 12:55:50;;;;;;;2.88;1.88;;;;;;;22.84;75.22;101198.31;5095261;28;20512;-67
2022/10/18 12:58:21;;;;;;;2.50;1.50;;;;;;;22.62;76.98;101202.59;5095217;28;20032;-67
2022/10/18 13:00:47;;;;;;;1.40;1.30;;;;;;;22.51;76.93;101200.66;5094497;28;20028;-66
2022/10/18 13:03:15;;;;;;;2.88;1.67;;;;;;;;;;5095275;28;20051;-63
2022/10/18 13:05:46;;;;;;;4.28;1.63;;;;;;;22.09;79.84;101204.09;5094987;28;20127;-65
2022/10/18 13:08:27;;;;;;;5.63;1.40;;;;;;;22.12;79.26;101195.50;5093860;28;20036;-66
2022/10/18 13:11:07;;;;;;;2.00;1.50;;;;;;;22.09;80.33;101197.81;5094587;28;20035;-67
2022/10/18 13:13:38;;;;;;;1.95;1.67;;;;;;;22.04;79.76;101184.94;5095049;28;20040;-67
2022/10/18 13:16:20;;;;;;;2.65;1.38;;;;;;;22.10;80.67;101194.06;5095228;28;20035;-67
2022/10/18 13:18:55;;;;;;;3.25;1.50;;;;;;;21.99;82.06;101184.78;5095511;28;20039;-66
2022/10/18 13:21:48;;;;;;;2.70;1.50;;;;;;;21.92;82.98;101187.56;5094445;28;20056;-67
2022/10/18 13:24:32;;;;;;;3.80;1.45;;;;;;;21.98;82.68;101185.00;5094831;28;20043;-67
2022/10/18 13:27:09;;;;;;;2.45;1.40;;;;;;;21.74;83.41;101187.53;5093319;28;20404;-67
2022/10/18 13:29:40;;;;;;;2.05;1.50;;;;;;;21.75;83.66;101181.06;5094731;28;20043;-67
2022/10/18 13:32:23;;;;;;;3.67;1.65;;;;;;;21.65;84.31;101175.34;5094365;28;20032;-67
2022/10/18 13:34:49;;;;;;;2.65;1.67;;;;;;;21.60;84.28;101184.13;5094605;28;20085;-67
2022/10/18 13:37:14;;;;;;;3.00;1.67;;;;;;;21.55;81.08;101186.69;5094512;28;20412;-67
2022/10/18 13:39:40;;;;;;;2.13;1.48;;;;;;;21.47;80.08;101195.09;5094503;28;20048;-67
2022/10/18 13:42:15;;;;;;;2.97;1.40;;;;;;;21.42;79.44;101197.63;5094025;28;20039;-67
2022/10/18 13:44:43;;;;;;;1.88;1.63;;;;;;;21.33;79.67;101191.69;5094303;28;20463;-67
2022/10/18 13:47:31;;;;;;;2.92;1.80;;;;;;;21.34;80.81;101203.34;5094307;28;20046;-67
2022/10/18 13:50:08;;;;;;;1.85;1.50;;;;;;;21.31;80.27;101199.19;5094250;28;20050;-66
2022/10/18 13:52:41;;;;;;;4.90;1.83;;;;;;;21.29;80.87;101192.34;5093967;28;20040;-66
2022/10/18 13:55:41;;;;;;;1.92;1.75;;;;;;;21.32;81.40;101202.72;5093723;28;20042;-66
2022/10/18 13:58:25;;;;;;;2.28;1.70;;;;;;;21.34;82.63;101201.47;5094106;28;20507;-66
2022/10/18 14:00:55;;;;;;;3.13;2.10;;;;;;;21.35;82.05;101202.28;5093589;28;20040;-66
2022/10/18 14:03:36;;;;;;;2.78;2.08;;;;;;;21.31;82.80;101207.31;5094123;28;20361;-66
2022/10/18 14:06:10;;;;;;;2.10;1.73;;;;;;;21.30;82.75;101202.94;5093954;28;20166;-66
2022/10/18 14:08:42;;;;;;;2.67;2.10;;;;;;;21.25;83.04;101199.19;5094022;28;20051;-66
2022/10/18 14:11:41;;;;;;;3.17;2.03;;;;;;;21.21;81.63;101204.25;5093434;28;20039;-65
2022/10/18 14:14:22;;;;;;;3.25;2.33;;;;;;;21.22;81.46;101196.94;5093891;28;20043;-66
2022/10/18 14:16:57;;;;;;;3.10;2.20;;;;;;;21.16;81.18;101204.06;5093847;28;20103;-67
2022/10/18 14:19:35;;;;;;;3.35;2.10;;;;;;;21.09;80.87;101197.88;5093840;28;20042;-66
2022/10/18 14:22:17;;;;;;;5.68;2.42;;;;;;;21.17;80.54;101203.00;5093693;28;20043;-67
2022/10/18 14:24:56;;;;;;;2.80;2.20;;;;;;;21.16;81.46;101203.25;5094125;28;20060;-67
2022/10/18 14:27:24;;;;;;;3.00;2.20;;;;;;;21.18;82.31;101201.13;5093575;28;20040;-67
2022/10/18 14:30:07;;;;;;;2.97;2.03;;;;;;;21.20;79.93;101205.31;5093525;28;20072;-66
2022/10/18 14:32:32;;;;;;;2.20;2.00;;;;;;;21.10;81.04;101200.34;5093413;28;20400;-66
2022/10/18 14:34:58;;;;;;;3.03;2.33;;;;;;;21.12;81.08;101211.78;5093428;28;20101;-66
2022/10/18 14:37:35;;;;;;;3.42;2.45;;;;;;;21.08;81.88;101197.03;5093272;28;20044;-66
2022/10/18 14:40:03;;;;;;;2.80;2.20;;;;;;;21.09;81.51;101206.00;5093131;28;20036;-66
2022/10/18 14:42:29;;;;;;;3.97;2.60;;;;;;;21.05;82.35;101207.47;5092982;28;20450;-66
2022/10/18 14:44:55;;;;;;;3.63;2.38;;;;;;;21.05;82.92;101212.91;5093321;28;20040;-70
2022/10/18 14:47:23;;;;;;;6.10;3.00;;;;;;;20.99;82.99;101211.88;5093279;28;20035;-71
2022/10/18 14:49:50;;;;;;;4.18;2.28;;;;;;;20.94;83.96;101211.72;5093394;28;20039;-71
2022/10/18 14:52:22;;;;;;;3.47;2.53;;;;;;;20.93;84.02;101203.81;5094773;28;20044;-71
2022/10/18 14:54:48;;;;;;;3.05;2.70;;;;;;;20.87;83.67;101205.53;5093124;28;20119;-71
2022/10/18 14:57:28;;;;;;;3.75;2.83;;;;;;;20.83;84.32;101202.41;5092814;28;20119;-71
2022/10/18 14:59:58;;;;;;;2.75;2.13;;;;;;;20.81;84.38;101207.22;5092731;28;20039;-72
2022/10/18 15:02:26;;;;;;;3.60;2.70;;;;;;;20.81;85.17;101206.41;5093909;28;20035;-71
2022/10/18 15:05:06;;;;;;;3.42;2.72;;;;;;;20.73;85.36;101210.16;5093846;28;20531;-71
2022/10/18 15:07:32;;;;;;;3.65;2.60;;;;;;;20.74;85.92;101203.72;5093451;28;20032;-71
2022/10/18 15:10:00;;;;;;;3.90;2.80;;;;;;;20.71;86.13;101196.03;5092584;28;20101;-71
2022/10/18 15:12:27;;;;;;;4.22;2.80;;;;;;;20.71;86.18;101203.31;5092623;28;20044;-71
2022/10/18 15:14:53;;;;;;;5.50;2.50;;;;;;;20.68;86.51;101199.19;5093285;28;20040;-71
2022/10/18 15:17:21;;;;;;;3.40;2.60;;;;;;;20.65;87.29;101202.31;5093154;28;20051;-71
2022/10/18 15:20:13;;;;;;;;;;;;;;;20.60;87.47;101204.81;5093079;28;20164;-71
2022/10/18 15:22:38;;;;;;;3.30;2.50;;;;;;;20.60;88.39;101204.81;5083546;28;19919;-71
2022/10/18 15:25:16;;;;;;;5.57;3.97;;;;;;;20.54;89.24;101200.31;5092418;28;20048;-73
2022/10/18 15:27:45;;;;;;;3.25;2.38;;;;;;;20.43;91.50;101201.78;5092467;28;20044;-71
2022/10/18 15:30:14;;;;;;;3.67;2.50;;;;;;;20.41;91.21;101205.72;5092209;28;20036;-72
2022/10/18 15:33:12;;;;;;;3.83;2.65;;;;;;;20.42;91.17;101207.41;5092899;28;20036;-73
2022/10/18 15:35:38;;;;;;;3.17;2.50;;;;;;;20.32;93.17;101199.72;5090787;28;20048;-71
2022/10/18 15:38:25;;;;;;;3.20;2.53;;;;;;;20.32;94.61;101197.03;5092160;28;20047;-72
2022/10/18 15:40:51;;;;;;;;;;;;;;;20.29;94.29;101205.59;5092243;28;20569;-71
2022/10/18 15:43:22;;;;;;;2.70;2.30;;;;;;;20.18;93.11;101198.94;5090899;28;19915;-71
2022/10/18 15:45:50;;;;;;;3.47;2.78;;;;;;;20.20;93.43;101199.56;5091974;28;20040;-72
2022/10/18 15:48:42;;;;;;;5.95;2.55;;;;;;;20.14;95.13;101200.41;5092046;28;20036;-71
2022/10/18 15:51:23;;;;;;;3.17;2.20;;;;;;;20.14;95.49;101202.28;5089557;28;22007;-70
2022/10/18 15:53:48;;;;;;;3.75;2.30;;;;;;;20.08;92.71;101211.25;5091968;28;20376;-73
2022/10/18 15:56:33;;;;;;;4.15;2.83;;;;;;;20.05;91.47;101207.09;5092083;28;20044;-72
2022/10/18 15:59:22;;;;;;;4.05;2.60;;;;;;;19.96;90.67;101214.63;5092020;28;20036;-72
2022/10/18 16:01:47;;;;;;;3.33;2.17;;;;;;;19.94;87.89;101213.16;5091512;28;20020;-71
2022/10/18 16:04:28;;;;;;;2.88;1.90;;;;;;;19.87;87.02;101209.63;5091846;28;20131;-72
2022/10/18 16:06:55;;;;;;;3.40;2.70;;;;;;;19.86;87.08;101208.81;5091920;28;20576;-71